Time;durP1;ratioP1;P1;durP2;ratioP2;P2;SDS_P1;SDS_P2;PMS_P1;PMS_P2;Temp;Humidity;BMP_temperature;BMP_pressure;BME280_temperature;BME280_humidity;BME280_pressure;Samples;Min_cycle;Max_cycle;Signal;HPM_P1;HPM_P2
2023/02/18 00:00:26;;;;;;;0.88;0.82;;;;;;;20.74;35.45;102049.91;5020971;28;20471;-84
2023/02/18 00:02:54;;;;;;;1.60;1.17;;;;;;;20.74;35.49;102045.44;5024868;28;20856;-83
2023/02/18 00:05:20;;;;;;;0.75;0.70;;;;;;;20.72;35.53;102046.59;5024789;28;20100;-83
2023/02/18 00:07:46;;;;;;;1.00;0.90;;;;;;;20.74;35.46;102047.25;5016031;28;20132;-83
2023/02/18 00:10:13;;;;;;;1.20;0.90;;;;;;;20.74;35.49;102050.75;5017683;28;20041;-83
2023/02/18 00:12:39;;;;;;;1.48;1.20;;;;;;;20.70;35.54;102040.63;5023141;28;20045;-83
2023/02/18 00:15:06;;;;;;;1.05;0.90;;;;;;;20.72;35.54;102039.47;5019793;28;20136;-82
2023/02/18 00:17:32;;;;;;;1.35;1.05;;;;;;;20.76;35.61;102040.81;5023694;28;20038;-83
2023/02/18 00:19:57;;;;;;;0.75;0.65;;;;;;;20.76;35.48;102046.13;5024803;28;20038;-83
2023/02/18 00:22:23;;;;;;;1.48;0.90;;;;;;;20.69;35.49;102038.97;5025312;28;20045;-83
2023/02/18 00:24:49;;;;;;;1.10;0.90;;;;;;;20.68;35.49;102035.50;5027146;28;20040;-84
2023/02/18 00:27:15;;;;;;;1.02;0.95;;;;;;;20.76;35.31;102027.59;5021780;28;20459;-83
2023/02/18 00:29:41;;;;;;;0.80;0.75;;;;;;;20.61;35.52;101994.75;5029929;28;20056;-83
2023/02/18 00:32:06;;;;;;;0.55;0.55;;;;;;;20.64;35.26;101999.72;5017509;28;20672;-83
2023/02/18 00:34:32;;;;;;;0.90;0.90;;;;;;;20.69;35.48;102004.56;5026553;28;20056;-83
2023/02/18 00:37:01;;;;;;;1.17;1.08;;;;;;;20.65;35.69;102000.56;5022076;28;20022;-84
2023/02/18 00:39:27;;;;;;;1.98;1.25;;;;;;;20.68;35.62;101993.16;5021536;28;20056;-82
2023/02/18 00:41:52;;;;;;;1.60;0.90;;;;;;;20.62;35.61;101984.97;5023053;28;20049;-83
2023/02/18 00:44:18;;;;;;;1.60;1.00;;;;;;;20.65;35.52;101988.16;5003543;28;20065;-83
2023/02/18 00:46:46;;;;;;;1.08;0.77;;;;;;;20.64;35.57;101983.00;5015762;28;20042;-83
2023/02/18 00:49:12;;;;;;;1.13;1.13;;;;;;;20.65;35.65;101977.59;5018716;28;20038;-83
2023/02/18 00:51:37;;;;;;;1.45;0.95;;;;;;;20.60;35.71;101971.91;5022595;28;20234;-83
2023/02/18 00:54:03;;;;;;;1.00;0.90;;;;;;;20.65;35.71;101974.09;5016736;28;20137;-82
2023/02/18 00:56:30;;;;;;;1.52;1.13;;;;;;;20.57;35.52;101951.06;5022737;28;20048;-82
2023/02/18 00:58:55;;;;;;;0.73;0.73;;;;;;;20.62;35.62;101959.34;5019253;28;20038;-83
2023/02/18 01:01:21;;;;;;;1.75;0.93;;;;;;;20.65;35.84;101950.28;5024074;28;20033;-83
2023/02/18 01:03:47;;;;;;;1.35;0.90;;;;;;;20.63;35.66;101946.94;5021463;28;20056;-83
2023/02/18 01:06:13;;;;;;;1.58;1.02;;;;;;;20.55;35.63;101937.16;5023606;28;20568;-82
2023/02/18 01:08:40;;;;;;;1.00;0.88;;;;;;;20.60;35.77;101941.97;5014683;28;20034;-83
2023/02/18 01:11:07;;;;;;;1.23;0.90;;;;;;;20.62;35.68;101946.13;5021962;28;20077;-82
2023/02/18 01:13:33;;;;;;;1.33;1.00;;;;;;;20.60;35.54;101949.91;5021474;28;20014;-83
2023/02/18 01:15:59;;;;;;;1.00;0.80;;;;;;;20.62;35.57;101938.19;5021279;28;20036;-83
2023/02/18 01:18:25;;;;;;;1.00;0.82;;;;;;;20.63;35.70;101939.84;5026983;28;20653;-82
2023/02/18 01:20:51;;;;;;;1.25;0.75;;;;;;;20.61;35.61;101939.16;5021209;28;20048;-83
2023/02/18 01:23:17;;;;;;;0.93;0.80;;;;;;;20.55;35.71;101942.44;5025261;28;20034;-84
2023/02/18 01:25:43;;;;;;;0.98;0.82;;;;;;;20.58;35.85;101939.47;5012640;28;20056;-83
2023/02/18 01:28:10;;;;;;;0.60;0.60;;;;;;;20.61;35.64;101944.47;5009728;28;20037;-83
2023/02/18 01:30:36;;;;;;;0.65;0.63;;;;;;;20.54;35.90;101951.38;5023887;28;21011;-86
2023/02/18 01:33:03;;;;;;;0.93;0.82;;;;;;;20.46;35.94;101941.56;5016836;28;20037;-86
2023/02/18 01:35:30;;;;;;;1.52;0.90;;;;;;;20.52;35.81;101948.06;5020696;28;20038;-86
2023/02/18 01:37:55;;;;;;;0.98;0.95;;;;;;;20.51;35.93;101955.19;5025243;28;20035;-84
2023/02/18 01:40:24;;;;;;;1.17;1.05;;;;;;;20.52;35.88;101945.41;5021302;28;20140;-84
2023/02/18 01:42:50;;;;;;;1.27;1.07;;;;;;;20.48;35.80;101939.63;5028740;28;20029;-83
2023/02/18 01:45:34;;;;;;;0.63;0.50;;;;;;;20.60;35.69;101944.63;5018410;28;20499;-83
2023/02/18 01:48:03;;;;;;;1.05;0.70;;;;;;;20.54;35.69;101939.97;5019178;28;20041;-84
2023/02/18 01:50:33;;;;;;;1.20;0.85;;;;;;;20.58;35.78;101933.38;5019768;28;20041;-83
2023/02/18 01:53:00;;;;;;;1.45;0.60;;;;;;;20.47;35.84;101929.19;5016381;28;20029;-84
2023/02/18 01:55:26;;;;;;;1.70;1.10;;;;;;;20.50;35.28;101920.94;5039586;28;20124;-83
2023/02/18 01:57:52;;;;;;;1.33;0.93;;;;;;;20.42;35.89;101911.13;5012068;28;20069;-84
2023/02/18 02:00:21;;;;;;;1.13;1.00;;;;;;;20.51;35.76;101918.13;5023582;28;20057;-83
2023/02/18 02:02:49;;;;;;;0.77;0.68;;;;;;;20.49;35.74;101917.47;5020376;28;20128;-83
2023/02/18 02:05:16;;;;;;;1.05;0.77;;;;;;;20.44;35.88;101892.44;5023221;28;20030;-84
2023/02/18 02:07:43;;;;;;;1.65;0.63;;;;;;;20.49;35.80;101898.94;5019511;28;20033;-83
2023/02/18 02:10:12;;;;;;;1.10;0.80;;;;;;;20.47;35.75;101895.63;5019131;28;20391;-84
2023/02/18 02:13:02;;;;;;;1.13;0.70;;;;;;;20.40;35.91;101889.25;5017208;28;20026;-84
2023/02/18 02:15:31;;;;;;;1.13;0.60;;;;;;;20.54;35.63;101879.94;5001189;28;20048;-84
2023/02/18 02:18:34;;;;;;;0.80;0.70;;;;;;;20.52;35.78;101851.00;5034950;28;20422;-84
2023/02/18 02:21:08;;;;;;;1.00;0.90;;;;;;;20.55;35.72;101847.19;5019939;28;20088;-84
2023/02/18 02:23:52;;;;;;;1.05;1.00;;;;;;;20.49;35.83;101837.25;5017873;28;20033;-83
2023/02/18 02:26:51;;;;;;;1.38;0.80;;;;;;;20.52;35.85;101835.13;5012845;28;20056;-83
2023/02/18 02:29:44;;;;;;;1.30;0.65;;;;;;;20.47;35.82;101836.59;5034717;28;20037;-83
2023/02/18 02:32:31;;;;;;;1.00;0.77;;;;;;;20.51;35.71;101848.50;5016145;28;20133;-84
2023/02/18 02:35:18;;;;;;;0.82;0.80;;;;;;;20.51;35.79;101851.97;5015324;28;20482;-83
2023/02/18 02:38:02;;;;;;;1.25;0.70;;;;;;;20.42;35.74;101836.22;5015967;28;20478;-83
2023/02/18 02:40:31;;;;;;;1.08;0.77;;;;;;;20.42;35.91;101839.69;5021945;28;20041;-85
2023/02/18 02:43:00;;;;;;;;;;;;;;;20.47;35.89;101844.53;5036214;28;20033;-83
2023/02/18 02:45:56;;;;;;;1.27;1.00;;;;;;;20.46;35.84;101842.84;5019734;28;19970;-83
2023/02/18 02:48:36;;;;;;;2.22;1.25;;;;;;;20.44;35.95;101834.22;5018618;28;20668;-84
2023/02/18 02:51:24;;;;;;;0.80;0.80;;;;;;;20.36;36.09;101818.31;5017728;28;20037;-83
2023/02/18 02:53:50;;;;;;;0.90;0.90;;;;;;;20.43;36.01;101816.69;5014011;28;20391;-83
2023/02/18 02:56:19;;;;;;;0.80;0.80;;;;;;;20.35;36.02;101811.38;5017045;28;20042;-83
2023/02/18 02:58:54;;;;;;;0.77;0.73;;;;;;;20.40;36.05;101812.53;5032796;28;20041;-83
2023/02/18 03:02:11;;;;;;;0.55;0.50;;;;;;;20.36;36.05;101805.91;5022012;28;20165;-83
2023/02/18 03:05:04;;;;;;;0.75;0.70;;;;;;;20.40;35.83;101793.19;4987392;28;20072;-83
2023/02/18 03:07:36;;;;;;;1.77;1.13;;;;;;;20.42;35.92;101788.59;5018381;28;20038;-83
2023/02/18 03:10:14;;;;;;;0.80;0.80;;;;;;;20.37;36.16;101786.41;5020646;28;20061;-83
2023/02/18 03:12:52;;;;;;;0.93;0.68;;;;;;;20.29;36.01;101770.53;5013361;28;20045;-82
2023/02/18 03:15:47;;;;;;;0.95;0.70;;;;;;;20.43;36.00;101767.25;5017398;28;20033;-83
2023/02/18 03:18:35;;;;;;;0.98;0.80;;;;;;;20.32;36.17;101754.31;5023944;28;20033;-83
2023/02/18 03:21:25;;;;;;;0.57;0.57;;;;;;;20.42;36.09;101751.56;5021187;28;20060;-83
2023/02/18 03:24:17;;;;;;;0.88;0.82;;;;;;;20.41;36.02;101752.53;5014778;28;20038;-83
2023/02/18 03:26:53;;;;;;;0.73;0.73;;;;;;;20.35;36.04;101732.00;5013937;28;20699;-83
2023/02/18 03:29:21;;;;;;;1.52;1.00;;;;;;;20.39;35.99;101728.03;5035678;28;20048;-83
2023/02/18 03:31:54;;;;;;;0.70;0.70;;;;;;;20.37;36.06;101727.38;5019593;28;20107;-83
2023/02/18 03:34:28;;;;;;;1.52;1.27;;;;;;;20.32;36.09;101724.41;5017862;28;20076;-84
2023/02/18 03:36:56;;;;;;;1.63;0.90;;;;;;;20.33;36.14;101718.94;5024730;28;20037;-83
2023/02/18 03:39:25;;;;;;;1.17;0.75;;;;;;;20.33;36.11;101711.00;5020698;28;20466;-83
2023/02/18 03:41:50;;;;;;;1.48;0.80;;;;;;;20.32;36.26;101708.53;5022103;28;20045;-83
2023/02/18 03:44:16;;;;;;;0.57;0.57;;;;;;;20.29;36.21;101709.69;5003215;28;20052;-82
2023/02/18 03:46:44;;;;;;;1.90;1.10;;;;;;;20.31;36.21;101715.63;5014089;28;20049;-81
2023/02/18 03:49:14;;;;;;;1.73;0.98;;;;;;;20.26;36.22;101717.91;5014512;28;20499;-83
2023/02/18 03:51:40;;;;;;;1.40;0.75;;;;;;;20.32;36.19;101727.88;4985063;28;20049;-83
2023/02/18 03:54:07;;;;;;;0.60;0.60;;;;;;;20.25;36.25;101710.97;5017410;28;20053;-83
2023/02/18 03:56:33;;;;;;;1.52;1.05;;;;;;;20.25;36.25;101712.78;5020725;28;20045;-83
2023/02/18 03:58:59;;;;;;;1.23;0.68;;;;;;;20.32;36.05;101708.53;5020474;28;20041;-83
2023/02/18 04:01:24;;;;;;;1.00;0.90;;;;;;;20.26;36.27;101704.69;5018445;28;20115;-83
2023/02/18 04:03:50;;;;;;;0.90;0.80;;;;;;;20.25;36.15;101689.81;5020628;28;20423;-84
2023/02/18 04:06:15;;;;;;;1.70;1.05;;;;;;;20.25;36.33;101681.88;5011916;28;20045;-83
2023/02/18 04:08:41;;;;;;;1.30;0.77;;;;;;;20.28;36.29;101673.63;5019099;28;20037;-83
2023/02/18 04:11:07;;;;;;;1.42;0.88;;;;;;;20.35;36.08;101681.75;5018895;28;20076;-83
2023/02/18 04:13:32;;;;;;;1.10;0.77;;;;;;;20.20;36.16;101668.31;5013560;28;20038;-83
2023/02/18 04:15:58;;;;;;;0.88;0.70;;;;;;;20.32;36.03;101677.63;4997883;28;20044;-83
2023/02/18 04:18:23;;;;;;;1.10;0.93;;;;;;;20.30;36.13;101671.66;5014925;28;20050;-82
2023/02/18 04:20:49;;;;;;;0.88;0.88;;;;;;;20.27;36.25;101671.13;5015093;28;20053;-83
2023/02/18 04:23:16;;;;;;;0.60;0.60;;;;;;;20.30;36.19;101673.47;5017005;28;20125;-82
2023/02/18 04:25:41;;;;;;;0.80;0.77;;;;;;;20.20;36.23;101673.59;5010973;28;20038;-83
2023/02/18 04:28:10;;;;;;;0.82;0.60;;;;;;;20.31;35.98;101673.31;5015915;28;20045;-83
2023/02/18 04:30:35;;;;;;;1.45;0.90;;;;;;;20.24;36.29;101667.00;5014796;28;20376;-83
2023/02/18 04:33:01;;;;;;;1.00;0.90;;;;;;;20.34;36.19;101669.50;5022595;28;20040;-83
2023/02/18 04:35:26;;;;;;;1.45;0.85;;;;;;;20.31;36.21;101673.31;5021268;28;20033;-83
2023/02/18 04:37:52;;;;;;;0.70;0.60;;;;;;;20.22;36.26;101658.41;5024840;28;20049;-83
2023/02/18 04:40:17;;;;;;;1.00;0.68;;;;;;;20.21;36.31;101656.75;5018012;28;20148;-83
2023/02/18 04:42:43;;;;;;;1.48;0.75;;;;;;;20.15;36.33;101645.00;5024929;28;20047;-83
2023/02/18 04:45:10;;;;;;;1.33;1.00;;;;;;;20.19;36.39;101643.69;5016674;28;20101;-83
2023/02/18 04:47:36;;;;;;;1.48;0.90;;;;;;;20.16;36.51;101633.44;5021503;28;20064;-83
2023/02/18 04:50:02;;;;;;;0.95;0.93;;;;;;;20.26;36.13;101635.09;5017843;28;20045;-84
2023/02/18 04:52:28;;;;;;;0.88;0.82;;;;;;;20.25;36.33;101628.97;5017515;28;20079;-84
2023/02/18 04:54:53;;;;;;;0.82;0.80;;;;;;;20.23;36.55;101621.22;5016158;28;20041;-84
2023/02/18 04:57:19;;;;;;;1.17;0.93;;;;;;;20.20;36.40;101623.38;5017368;28;20042;-84
2023/02/18 04:59:44;;;;;;;1.10;0.88;;;;;;;20.12;36.66;101620.72;5019280;28;20061;-83
2023/02/18 05:02:10;;;;;;;0.82;0.82;;;;;;;20.17;36.51;101607.81;5018964;28;20045;-82
2023/02/18 05:04:35;;;;;;;1.30;0.80;;;;;;;20.25;36.41;101601.72;5018660;28;20096;-84
2023/02/18 05:07:01;;;;;;;1.10;1.00;;;;;;;20.09;36.33;101574.25;5020582;28;20049;-84
2023/02/18 05:09:26;;;;;;;0.90;0.80;;;;;;;20.15;36.56;101568.31;5020162;28;20061;-84
2023/02/18 05:11:52;;;;;;;1.48;1.13;;;;;;;20.12;36.65;101562.53;5021493;28;20044;-83
2023/02/18 05:14:17;;;;;;;1.10;1.00;;;;;;;20.16;36.50;101562.03;5018924;28;20057;-84
2023/02/18 05:16:43;;;;;;;0.88;0.75;;;;;;;20.24;36.31;101558.56;5026795;28;20048;-83
2023/02/18 05:19:13;;;;;;;0.90;0.90;;;;;;;20.13;36.77;101553.63;5016989;28;21253;-83
2023/02/18 05:21:39;;;;;;;1.15;0.77;;;;;;;20.10;36.72;101541.53;5015937;28;20045;-83
2023/02/18 05:24:05;;;;;;;0.60;0.60;;;;;;;20.16;36.61;101543.53;5016034;28;20127;-83
2023/02/18 05:26:30;;;;;;;1.30;0.98;;;;;;;20.16;36.46;101534.78;5013481;28;20530;-83
2023/02/18 05:28:56;;;;;;;1.45;0.90;;;;;;;20.14;36.59;101526.19;5023854;28;20049;-83
2023/02/18 05:31:22;;;;;;;0.80;0.75;;;;;;;20.12;36.69;101517.59;5027475;28;20045;-83
2023/02/18 05:33:47;;;;;;;1.17;0.90;;;;;;;20.14;36.61;101508.50;5023005;28;20033;-83
2023/02/18 05:36:13;;;;;;;1.00;0.90;;;;;;;20.06;36.61;101489.16;5016641;28;20383;-84
2023/02/18 05:38:38;;;;;;;1.00;0.90;;;;;;;20.13;36.65;101476.94;5025108;28;20042;-82
2023/02/18 05:41:04;;;;;;;1.10;0.88;;;;;;;20.13;36.52;101463.72;5025436;28;20128;-83
2023/02/18 05:43:30;;;;;;;0.70;0.70;;;;;;;20.12;36.59;101460.25;5018406;28;20034;-83
2023/02/18 05:45:55;;;;;;;0.82;0.82;;;;;;;20.09;36.74;101459.72;5018043;28;20038;-83
2023/02/18 05:48:20;;;;;;;2.38;0.77;;;;;;;20.09;36.74;101463.19;5015219;28;20064;-83
2023/02/18 05:50:46;;;;;;;1.15;0.90;;;;;;;20.12;36.60;101451.50;5019687;28;20041;-83
2023/02/18 05:53:11;;;;;;;0.75;0.75;;;;;;;20.14;36.81;101447.69;5012952;28;20131;-83
2023/02/18 05:55:37;;;;;;;1.00;0.77;;;;;;;20.08;36.63;101435.13;5021359;28;20060;-83
2023/02/18 05:58:04;;;;;;;0.82;0.80;;;;;;;20.12;36.66;101436.44;5017191;28;20524;-84
2023/02/18 06:00:30;;;;;;;1.02;0.73;;;;;;;20.07;36.72;101425.53;5015230;28;20033;-84
2023/02/18 06:02:57;;;;;;;0.90;0.88;;;;;;;20.20;36.50;101431.13;5022781;28;20046;-83
2023/02/18 06:05:24;;;;;;;0.73;0.70;;;;;;;20.06;36.74;101428.34;5017753;28;20045;-83
2023/02/18 06:07:49;;;;;;;0.80;0.80;;;;;;;20.04;36.93;101420.59;5012929;28;20049;-83
2023/02/18 06:10:17;;;;;;;1.42;1.27;;;;;;;20.06;36.84;101417.78;5018845;28;20104;-83
2023/02/18 06:12:42;;;;;;;0.70;0.70;;;;;;;19.98;36.82;101413.31;5015790;28;20046;-84
2023/02/18 06:15:08;;;;;;;1.00;1.00;;;;;;;19.98;36.86;101417.78;5018244;28;20049;-82
2023/02/18 06:17:34;;;;;;;1.30;0.98;;;;;;;20.07;36.69;101414.94;5015581;28;20116;-83
2023/02/18 06:19:59;;;;;;;0.63;0.63;;;;;;;20.06;36.80;101415.94;5023360;28;20178;-83
2023/02/18 06:22:25;;;;;;;0.98;0.82;;;;;;;19.97;36.92;101416.97;5016022;28;20033;-83
2023/02/18 06:24:50;;;;;;;1.33;1.00;;;;;;;20.00;36.90;101415.81;5015011;28;20056;-83
2023/02/18 06:27:16;;;;;;;1.10;1.00;;;;;;;20.08;36.77;101408.66;5014291;28;20049;-83
2023/02/18 06:29:41;;;;;;;0.50;0.50;;;;;;;20.03;36.86;101404.88;5019896;28;20479;-83
2023/02/18 06:32:07;;;;;;;0.82;0.68;;;;;;;20.03;36.93;101408.34;5021937;28;20037;-83
2023/02/18 06:34:33;;;;;;;0.95;0.85;;;;;;;20.00;36.98;101394.66;5017111;28;20053;-83
2023/02/18 06:36:58;;;;;;;0.90;0.85;;;;;;;20.08;36.85;101405.19;5019347;28;20058;-83
2023/02/18 06:39:23;;;;;;;1.15;0.90;;;;;;;20.04;36.86;101395.97;5019474;28;20048;-83
2023/02/18 06:41:49;;;;;;;1.45;1.02;;;;;;;19.94;37.05;101390.88;5029886;28;20034;-83
2023/02/18 06:44:16;;;;;;;0.93;0.88;;;;;;;19.94;37.13;101393.50;5019519;28;20808;-82
2023/02/18 06:46:43;;;;;;;0.65;0.60;;;;;;;20.09;36.82;101393.63;5017440;28;20050;-82
2023/02/18 06:49:08;;;;;;;0.82;0.68;;;;;;;20.01;36.94;101396.31;5017186;28;20038;-83
2023/02/18 06:51:34;;;;;;;0.80;0.80;;;;;;;19.90;37.17;101387.72;5016445;28;20049;-82
2023/02/18 06:53:59;;;;;;;0.45;0.45;;;;;;;20.03;37.17;101375.81;5013754;28;20033;-83
2023/02/18 06:56:25;;;;;;;1.30;0.98;;;;;;;20.00;36.95;101376.16;5015615;28;20889;-83
2023/02/18 06:58:50;;;;;;;0.50;0.50;;;;;;;19.94;37.06;101379.47;5015573;28;20053;-84
2023/02/18 07:01:16;;;;;;;0.50;0.45;;;;;;;19.93;37.22;101378.66;5018561;28;21580;-83
2023/02/18 07:03:41;;;;;;;0.60;0.60;;;;;;;19.94;37.06;101369.72;5038362;28;20064;-83
2023/02/18 07:06:07;;;;;;;0.70;0.70;;;;;;;19.88;37.14;101357.97;5020403;28;20556;-83
2023/02/18 07:08:35;;;;;;;0.57;0.57;;;;;;;20.02;36.86;101371.50;5011979;28;20088;-83
2023/02/18 07:11:00;;;;;;;0.80;0.80;;;;;;;19.98;37.29;101351.69;5018582;28;20072;-83
2023/02/18 07:13:26;;;;;;;0.88;0.88;;;;;;;19.99;36.97;101350.72;5017726;28;20511;-83
2023/02/18 07:15:51;;;;;;;0.55;0.55;;;;;;;19.99;37.09;101358.63;5020316;28;20041;-83
2023/02/18 07:18:17;;;;;;;0.40;0.40;;;;;;;20.00;36.97;101339.13;5026355;28;20075;-83
2023/02/18 07:20:42;;;;;;;0.35;0.30;;;;;;;20.16;36.81;101347.03;5021405;28;20045;-83
2023/02/18 07:23:08;;;;;;;0.85;0.68;;;;;;;20.11;37.13;101331.69;5019623;28;20042;-83
2023/02/18 07:25:33;;;;;;;0.52;0.50;;;;;;;20.38;36.36;101335.72;5016854;28;20048;-83
2023/02/18 07:27:59;;;;;;;0.57;0.50;;;;;;;21.05;35.21;101340.56;5023483;28;20030;-83
2023/02/18 07:30:24;;;;;;;0.60;0.60;;;;;;;21.27;34.92;101333.66;5014932;28;20644;-84
2023/02/18 07:32:50;;;;;;;0.47;0.47;;;;;;;21.35;35.00;101330.94;5020423;28;20388;-83
2023/02/18 07:35:16;;;;;;;0.55;0.55;;;;;;;21.38;34.66;101320.81;5018683;28;20092;-83
2023/02/18 07:37:48;;;;;;;1.20;0.80;;;;;;;21.31;35.07;101335.75;5021983;28;20371;-83
2023/02/18 07:40:17;;;;;;;0.40;0.40;;;;;;;21.15;35.31;101335.00;5015556;28;20060;-84
2023/02/18 07:42:43;;;;;;;0.60;0.60;;;;;;;21.05;35.26;101330.78;5019727;28;20039;-84
2023/02/18 07:45:10;;;;;;;0.40;0.40;;;;;;;20.85;35.77;101334.06;5017772;28;20049;-82
2023/02/18 07:47:35;;;;;;;0.43;0.43;;;;;;;20.77;36.13;101332.28;5016806;28;20439;-83
2023/02/18 07:50:01;;;;;;;0.32;0.32;;;;;;;20.64;36.38;101332.00;5016648;28;20056;-83
2023/02/18 07:52:26;;;;;;;0.65;0.60;;;;;;;20.45;36.47;101331.41;5016775;28;20041;-83
2023/02/18 07:54:52;;;;;;;0.50;0.50;;;;;;;20.43;36.82;101344.00;5010714;28;20124;-83
2023/02/18 07:57:17;;;;;;;0.40;0.40;;;;;;;20.31;36.98;101333.94;5014548;28;20135;-83
2023/02/18 07:59:43;;;;;;;0.30;0.28;;;;;;;20.30;37.22;101334.94;5012606;28;20037;-81
2023/02/18 08:02:17;;;;;;;0.50;0.50;;;;;;;20.35;36.87;101338.72;5017494;28;20033;-83
2023/02/18 08:04:43;;;;;;;0.38;0.38;;;;;;;20.26;37.28;101315.91;5019882;28;20011;-82
2023/02/18 08:07:13;;;;;;;0.40;0.40;;;;;;;20.28;37.23;101318.38;5014586;28;20052;-82
2023/02/18 08:09:38;;;;;;;;;;;;;;;20.35;37.17;101317.56;5015954;28;20799;-82
2023/02/18 08:12:04;;;;;;;0.40;0.40;;;;;;;20.30;37.32;101338.41;5018930;28;19959;-82
2023/02/18 08:14:29;;;;;;;0.50;0.50;;;;;;;20.25;37.40;101326.66;5018934;28;20060;-81
2023/02/18 08:16:55;;;;;;;0.55;0.55;;;;;;;20.27;37.22;101329.97;5017562;28;20079;-82
2023/02/18 08:19:21;;;;;;;0.50;0.50;;;;;;;20.27;37.27;101322.03;5018462;28;20135;-81
2023/02/18 08:21:46;;;;;;;0.50;0.50;;;;;;;20.30;37.06;101330.47;5016052;28;20050;-83
2023/02/18 08:24:12;;;;;;;0.40;0.40;;;;;;;20.28;37.19;101332.44;5022226;28;20061;-84
2023/02/18 08:26:37;;;;;;;0.50;0.50;;;;;;;20.33;37.34;101327.47;5016724;28;20099;-87
2023/02/18 08:29:03;;;;;;;0.60;0.60;;;;;;;20.29;37.37;101328.81;5021190;28;20822;-84
2023/02/18 08:31:29;;;;;;;0.80;0.55;;;;;;;20.33;37.32;101338.06;5017793;28;20368;-84
2023/02/18 08:33:57;;;;;;;1.05;0.65;;;;;;;20.34;37.37;101323.00;5012502;28;20410;-86
2023/02/18 08:36:23;;;;;;;0.50;0.50;;;;;;;20.41;37.23;101327.47;5017165;28;20662;-83
2023/02/18 08:38:49;;;;;;;0.35;0.35;;;;;;;20.36;37.26;101324.50;5016204;28;20030;-84
2023/02/18 08:41:15;;;;;;;0.50;0.50;;;;;;;20.33;37.31;101324.00;5023680;28;20033;-84
2023/02/18 08:43:41;;;;;;;0.45;0.40;;;;;;;20.33;37.23;101314.25;5016119;28;20041;-87
2023/02/18 08:46:06;;;;;;;1.02;0.70;;;;;;;20.33;37.32;101337.25;5022445;28;20119;-83
2023/02/18 08:48:32;;;;;;;0.30;0.30;;;;;;;20.33;37.29;101327.47;5018140;28;20041;-86
2023/02/18 08:50:58;;;;;;;0.73;0.65;;;;;;;20.22;37.51;101331.31;5019491;28;20069;-84
2023/02/18 08:53:24;;;;;;;0.30;0.30;;;;;;;20.28;37.22;101324.50;5016872;28;20029;-84
2023/02/18 08:55:50;;;;;;;0.30;0.30;;;;;;;20.38;37.48;101337.53;5020080;28;21796;-85
2023/02/18 08:58:16;;;;;;;0.38;0.38;;;;;;;20.29;37.48;101334.13;5019228;28;20041;-84
2023/02/18 09:00:42;;;;;;;0.60;0.60;;;;;;;20.23;37.50;101313.63;5025757;28;20049;-85
2023/02/18 09:03:12;;;;;;;0.30;0.30;;;;;;;20.30;37.54;101325.19;5020716;28;21769;-84
2023/02/18 09:05:38;;;;;;;;;;;;;;;20.32;37.46;101314.44;5018661;28;20037;-84
2023/02/18 09:08:05;;;;;;;0.50;0.50;;;;;;;20.28;37.51;101324.50;5021416;28;19928;-83
2023/02/18 09:10:30;;;;;;;0.68;0.68;;;;;;;20.35;37.47;101324.66;5020910;28;20041;-86
2023/02/18 09:12:56;;;;;;;1.08;0.43;;;;;;;20.38;37.36;101314.56;5020946;28;20056;-85
2023/02/18 09:15:21;;;;;;;0.95;0.85;;;;;;;20.43;37.42;101314.88;5015629;28;20045;-83
2023/02/18 09:17:47;;;;;;;0.70;0.60;;;;;;;20.31;37.63;101318.06;5009888;28;20380;-82
2023/02/18 09:20:13;;;;;;;0.75;0.60;;;;;;;20.49;37.10;101311.59;5023872;28;20049;-85
2023/02/18 09:22:39;;;;;;;0.30;0.30;;;;;;;21.13;35.99;101317.47;5002297;28;20037;-85
2023/02/18 09:25:05;;;;;;;0.55;0.55;;;;;;;21.29;36.04;101310.44;5020674;28;20041;-87
2023/02/18 09:27:30;;;;;;;0.75;0.50;;;;;;;21.24;36.09;101329.53;5020321;28;20097;-85
2023/02/18 09:29:55;;;;;;;0.28;0.28;;;;;;;21.04;36.54;101323.03;5023553;28;20403;-87
2023/02/18 09:32:21;;;;;;;0.82;0.70;;;;;;;21.05;36.65;101324.66;5018997;28;20088;-85
2023/02/18 09:34:47;;;;;;;0.30;0.30;;;;;;;20.98;36.83;101321.88;5019467;28;20064;-85
2023/02/18 09:37:14;;;;;;;0.57;0.50;;;;;;;20.72;37.17;101319.56;5020599;28;20057;-85
2023/02/18 09:39:39;;;;;;;0.40;0.40;;;;;;;20.58;37.41;101322.94;5022883;28;20041;-85
2023/02/18 09:42:10;;;;;;;0.85;0.60;;;;;;;20.56;37.67;101316.16;5020673;28;20041;-85
2023/02/18 09:44:49;;;;;;;0.55;0.50;;;;;;;20.51;37.90;101333.41;5023469;28;20048;-84
2023/02/18 09:47:21;;;;;;;0.40;0.40;;;;;;;20.43;38.04;101344.00;5019753;28;20116;-86
2023/02/18 09:49:52;;;;;;;0.47;0.47;;;;;;;20.39;38.04;101332.06;5022515;28;20044;-85
2023/02/18 09:52:26;;;;;;;1.15;0.57;;;;;;;20.32;38.31;101341.72;5024189;28;20080;-85
2023/02/18 09:54:52;;;;;;;0.40;0.40;;;;;;;20.32;38.38;101333.78;5021256;28;20045;-85
2023/02/18 09:57:25;;;;;;;0.32;0.30;;;;;;;20.36;38.41;101340.34;5018929;28;20041;-86
2023/02/18 09:59:59;;;;;;;0.70;0.47;;;;;;;20.32;38.44;101336.41;5023698;28;20061;-85
2023/02/18 10:02:26;;;;;;;0.40;0.40;;;;;;;20.38;38.41;101342.84;5017286;28;20102;-85
2023/02/18 10:04:53;;;;;;;0.52;0.50;;;;;;;20.41;38.26;101331.94;5016767;28;20124;-86
2023/02/18 10:07:31;;;;;;;0.70;0.60;;;;;;;20.34;38.54;101345.00;5018590;28;21964;-86
2023/02/18 10:10:01;;;;;;;0.30;0.30;;;;;;;20.21;38.46;101340.25;5014879;28;20587;-86
2023/02/18 10:12:31;;;;;;;0.85;0.70;;;;;;;20.36;38.49;101335.06;5019366;28;20048;-87
2023/02/18 10:15:00;;;;;;;1.85;0.63;;;;;;;20.33;38.38;101351.28;5016429;28;20041;-86
2023/02/18 10:17:29;;;;;;;0.50;0.50;;;;;;;20.35;38.57;101351.94;5023034;28;20056;-87
2023/02/18 10:19:57;;;;;;;0.73;0.65;;;;;;;20.28;38.70;101353.59;5019041;28;20482;-86
2023/02/18 10:22:24;;;;;;;0.95;0.60;;;;;;;20.35;38.51;101333.41;5016733;28;20047;-86
2023/02/18 10:24:54;;;;;;;0.40;0.40;;;;;;;20.30;38.60;101348.97;5020210;28;20041;-86
2023/02/18 10:27:25;;;;;;;0.40;0.40;;;;;;;20.28;38.66;101353.59;5019433;28;20045;-86
2023/02/18 10:29:51;;;;;;;0.68;0.60;;;;;;;20.29;38.88;101330.63;5015558;28;20041;-86
2023/02/18 10:32:26;;;;;;;0.43;0.43;;;;;;;20.30;38.72;101343.69;5017490;28;20033;-87
2023/02/18 10:35:13;;;;;;;0.55;0.55;;;;;;;20.30;38.79;101337.59;5021289;28;20374;-87
2023/02/18 10:38:14;;;;;;;0.57;0.57;;;;;;;20.37;38.71;101346.47;5016611;28;20122;-86
2023/02/18 10:41:24;;;;;;;0.65;0.65;;;;;;;20.37;38.49;101360.53;5017355;28;20044;-86
2023/02/18 10:44:05;;;;;;;0.55;0.52;;;;;;;20.34;38.50;101375.91;5011092;28;20054;-85
2023/02/18 10:46:44;;;;;;;0.63;0.60;;;;;;;20.30;38.60;101359.56;5019250;28;20045;-88
2023/02/18 10:49:34;;;;;;;0.88;0.60;;;;;;;20.37;38.58;101352.59;5019621;28;20072;-86
2023/02/18 10:52:02;;;;;;;0.45;0.45;;;;;;;20.35;38.69;101375.75;5020062;28;20043;-86
2023/02/18 10:55:08;;;;;;;0.63;0.50;;;;;;;20.39;38.57;101361.19;5020986;28;20600;-86
2023/02/18 10:57:34;;;;;;;1.10;0.75;;;;;;;20.32;38.34;101344.34;5021419;28;20061;-86
2023/02/18 11:00:19;;;;;;;0.63;0.57;;;;;;;20.29;38.64;101351.78;5019190;28;20067;-86
2023/02/18 11:02:46;;;;;;;1.00;0.55;;;;;;;20.37;38.46;101365.00;5022974;28;20495;-87
2023/02/18 11:05:34;;;;;;;0.65;0.57;;;;;;;20.52;38.07;101373.91;5018785;28;20049;-86
2023/02/18 11:08:08;;;;;;;0.60;0.60;;;;;;;20.59;38.06;101369.56;5023156;28;20053;-87
2023/02/18 11:10:44;;;;;;;0.50;0.50;;;;;;;20.49;38.00;101379.53;5018427;28;20033;-85
2023/02/18 11:13:13;;;;;;;0.73;0.73;;;;;;;20.53;38.36;101378.19;5018048;28;20045;-85
2023/02/18 11:15:58;;;;;;;0.30;0.30;;;;;;;20.41;38.55;101382.19;5019353;28;20033;-85
2023/02/18 11:18:26;;;;;;;0.63;0.57;;;;;;;20.50;38.54;101378.53;5015761;28;20120;-85
2023/02/18 11:20:58;;;;;;;0.82;0.65;;;;;;;20.48;38.52;101381.38;5020608;28;20837;-84
2023/02/18 11:23:24;;;;;;;1.00;0.70;;;;;;;20.49;38.62;101382.19;5017883;28;21861;-86
2023/02/18 11:25:52;;;;;;;0.55;0.47;;;;;;;20.42;38.56;101392.59;5018132;28;20056;-85
2023/02/18 11:28:18;;;;;;;0.63;0.63;;;;;;;20.39;38.75;101389.44;5015288;28;20387;-85
2023/02/18 11:30:47;;;;;;;0.88;0.52;;;;;;;20.38;38.73;101407.13;5016941;28;20041;-85
2023/02/18 11:33:41;;;;;;;0.60;0.40;;;;;;;20.37;38.86;101408.13;5020197;28;20383;-85
2023/02/18 11:36:26;;;;;;;0.80;0.65;;;;;;;20.40;38.77;101412.25;5016722;28;20484;-85